createdAt,value
2019-05-20T00:01:28.254Z,1.40
2019-05-20T00:03:58.530Z,1.40
2019-05-20T00:06:28.374Z,1.03
2019-05-20T00:08:58.231Z,1.50
2019-05-20T00:11:28.213Z,1.60
2019-05-20T00:13:58.286Z,1.90
2019-05-20T00:16:28.113Z,1.40
2019-05-20T00:18:57.985Z,3.03
2019-05-20T00:21:27.985Z,1.13
2019-05-20T00:23:57.896Z,1.40
2019-05-20T00:26:27.748Z,1.00
2019-05-20T00:28:57.668Z,1.03
2019-05-20T00:31:27.747Z,1.00
2019-05-20T00:33:57.652Z,1.37
2019-05-20T00:36:27.532Z,1.00
2019-05-20T00:39:17.021Z,1.30
2019-05-20T00:41:47.193Z,0.83
2019-05-20T00:44:17.443Z,0.77
2019-05-20T00:46:47.480Z,1.03
2019-05-20T00:49:17.721Z,1.07
2019-05-20T00:51:49.414Z,0.70
2019-05-20T00:54:19.536Z,0.63
2019-05-20T00:56:52.131Z,0.67
2019-05-20T00:59:22.202Z,0.77
2019-05-20T01:01:52.400Z,0.90
2019-05-20T01:04:22.315Z,0.70
2019-05-20T01:06:52.279Z,0.90
2019-05-20T01:09:22.297Z,0.70
2019-05-20T01:11:52.639Z,0.60
2019-05-20T01:14:25.789Z,0.67
2019-05-20T01:16:55.661Z,0.57
2019-05-20T01:19:25.626Z,0.63
2019-05-20T01:21:55.556Z,0.57
2019-05-20T01:24:25.443Z,0.97
2019-05-20T01:26:55.281Z,0.60
2019-05-20T01:29:25.140Z,1.03
2019-05-20T01:31:55.065Z,0.50
2019-05-20T01:34:25.045Z,1.13
2019-05-20T01:36:54.984Z,0.60
2019-05-20T01:39:25.037Z,0.50
2019-05-20T01:41:54.932Z,0.50
2019-05-20T01:44:24.813Z,0.57
2019-05-20T01:46:54.667Z,0.60
2019-05-20T01:49:24.682Z,0.57
2019-05-20T01:51:54.615Z,0.50
2019-05-20T01:54:24.578Z,0.70
2019-05-20T01:56:54.552Z,0.60
2019-05-20T01:59:24.677Z,0.70
2019-05-20T02:01:54.574Z,0.63
2019-05-20T02:04:24.542Z,1.90
2019-05-20T02:06:54.614Z,0.90
2019-05-20T02:09:24.484Z,1.60
2019-05-20T02:11:54.336Z,0.70
2019-05-20T02:14:25.959Z,0.60
2019-05-20T02:16:55.965Z,0.80
2019-05-20T02:19:25.809Z,0.80
2019-05-20T02:21:56.160Z,2.87
2019-05-20T02:24:26.406Z,0.60
2019-05-20T02:26:56.241Z,0.70
2019-05-20T02:29:26.259Z,0.60
2019-05-20T02:31:56.453Z,1.07
2019-05-20T02:34:26.549Z,0.70
2019-05-20T02:36:56.667Z,0.80
2019-05-20T02:39:26.956Z,0.80
2019-05-20T02:41:57.006Z,0.80
2019-05-20T02:44:26.943Z,1.07
2019-05-20T02:46:56.881Z,0.70
2019-05-20T02:49:26.753Z,0.80
2019-05-20T02:51:56.679Z,0.60
2019-05-20T02:54:26.730Z,0.80
2019-05-20T02:56:56.710Z,0.80
2019-05-20T02:59:26.588Z,0.90
2019-05-20T03:01:56.515Z,0.80
2019-05-20T03:04:26.730Z,0.90
2019-05-20T03:06:57.638Z,0.77
2019-05-20T03:09:27.505Z,0.80
2019-05-20T03:11:57.444Z,1.10
2019-05-20T03:14:27.314Z,1.60
2019-05-20T03:16:57.332Z,0.70
2019-05-20T03:19:27.343Z,0.90
2019-05-20T03:21:57.223Z,0.90
2019-05-20T03:24:27.145Z,0.80
2019-05-20T03:26:57.028Z,0.80
2019-05-20T03:29:26.978Z,0.93
2019-05-20T03:31:57.339Z,1.00
2019-05-20T03:34:45.692Z,0.90
2019-05-20T03:36:59.362Z,1.23
2019-05-20T03:39:29.498Z,1.00
2019-05-20T03:41:59.379Z,1.10
2019-05-20T03:44:29.234Z,1.10
2019-05-20T03:46:59.120Z,1.00
2019-05-20T03:49:29.107Z,1.13
2019-05-20T03:51:59.015Z,0.90
2019-05-20T03:54:29.120Z,1.00
2019-05-20T03:56:59.057Z,1.00
2019-05-20T03:59:29.089Z,1.27
2019-05-20T04:01:59.086Z,1.07
2019-05-20T04:04:29.014Z,1.10
2019-05-20T04:06:59.126Z,1.17
2019-05-20T04:09:29.107Z,1.40
2019-05-20T04:11:58.973Z,1.00
2019-05-20T04:14:28.831Z,1.00
2019-05-20T04:16:58.807Z,1.10
2019-05-20T04:19:28.725Z,1.73
2019-05-20T04:21:58.586Z,1.17
2019-05-20T04:24:28.506Z,1.23
2019-05-20T04:27:01.656Z,1.53
2019-05-20T04:29:31.692Z,2.03
2019-05-20T04:32:01.583Z,1.43
2019-05-20T04:34:32.092Z,1.27
2019-05-20T04:37:02.040Z,1.50
2019-05-20T04:39:32.177Z,1.90
2019-05-20T04:42:06.266Z,1.90
2019-05-20T04:44:37.272Z,3.10
2019-05-20T04:47:07.697Z,3.17
2019-05-20T04:49:38.084Z,3.00
2019-05-20T04:52:08.903Z,3.30
2019-05-20T04:54:43.289Z,3.80
2019-05-20T04:57:13.761Z,3.70
2019-05-20T04:59:43.765Z,4.00
2019-05-20T05:02:14.213Z,4.00
2019-05-20T05:04:44.432Z,4.00
2019-05-20T05:07:17.562Z,4.00
2019-05-20T05:09:50.791Z,4.00
2019-05-20T05:12:21.137Z,4.70
2019-05-20T05:14:51.877Z,4.83
2019-05-20T05:17:25.272Z,4.37
2019-05-20T05:19:55.651Z,4.90
2019-05-20T05:22:27.231Z,4.73
2019-05-20T05:24:57.276Z,5.07
2019-05-20T05:27:27.312Z,4.90
2019-05-20T05:29:57.412Z,5.97
2019-05-20T05:32:42.983Z,5.77
2019-05-20T05:35:16.066Z,5.97
2019-05-20T05:37:48.176Z,6.53
2019-05-20T05:40:18.914Z,6.27
2019-05-20T05:42:55.653Z,5.53
2019-05-20T05:45:31.827Z,5.93
2019-05-20T05:48:12.994Z,6.37
2019-05-20T05:50:42.972Z,6.37
2019-05-20T05:53:13.111Z,7.03
2019-05-20T05:55:43.331Z,6.97
2019-05-20T05:58:13.348Z,7.67
2019-05-20T06:00:43.303Z,6.77
2019-05-20T06:03:13.297Z,7.17
2019-05-20T06:05:43.622Z,6.30
2019-05-20T06:08:13.743Z,7.30
2019-05-20T06:10:43.945Z,6.53
2019-05-20T06:13:13.887Z,9.07
2019-05-20T06:15:44.386Z,6.63
2019-05-20T06:18:14.498Z,7.43
2019-05-20T06:20:46.542Z,7.83
2019-05-20T06:23:16.592Z,8.00
2019-05-20T06:25:46.564Z,7.67
2019-05-20T06:28:16.542Z,7.90
2019-05-20T06:30:48.140Z,7.53
2019-05-20T06:33:18.286Z,7.03
2019-05-20T06:35:49.169Z,7.20
2019-05-20T06:38:39.491Z,7.30
2019-05-20T06:41:09.960Z,7.23
2019-05-20T06:43:40.945Z,7.07
2019-05-20T06:46:12.378Z,6.03
2019-05-20T06:48:42.316Z,7.87
2019-05-20T06:51:12.275Z,7.53
2019-05-20T06:53:42.688Z,7.43
2019-05-20T06:56:14.275Z,7.60
2019-05-20T06:58:45.913Z,6.43
2019-05-20T07:01:15.913Z,8.07
2019-05-20T07:03:45.957Z,7.57
2019-05-20T07:06:16.184Z,6.93
2019-05-20T07:08:46.154Z,7.57
2019-05-20T07:11:16.118Z,7.93
2019-05-20T07:13:46.235Z,6.57
2019-05-20T07:16:16.167Z,12.73
2019-05-20T07:18:46.223Z,7.10
2019-05-20T07:21:16.352Z,7.73
2019-05-20T07:23:46.238Z,6.53
2019-05-20T07:26:16.195Z,7.40
2019-05-20T07:28:46.134Z,6.80
2019-05-20T07:31:16.023Z,7.60
2019-05-20T07:33:47.730Z,7.20
2019-05-20T07:36:17.730Z,7.87
2019-05-20T07:38:47.692Z,7.83
2019-05-20T07:41:17.743Z,8.87
2019-05-20T07:43:48.052Z,6.83
2019-05-20T07:46:18.718Z,7.27
2019-05-20T07:48:50.099Z,8.40
2019-05-20T07:51:21.440Z,7.97
2019-05-20T07:53:52.202Z,8.00
2019-05-20T07:56:27.435Z,7.83
2019-05-20T07:59:02.267Z,8.67
2019-05-20T08:01:32.425Z,8.47
2019-05-20T08:04:02.775Z,8.13
2019-05-20T08:06:32.823Z,9.13
2019-05-20T08:09:02.728Z,8.00
2019-05-20T08:11:32.663Z,8.43
2019-05-20T08:14:02.882Z,7.67
2019-05-20T08:16:33.231Z,8.13
2019-05-20T08:19:03.439Z,8.43
2019-05-20T08:21:33.493Z,7.10
2019-05-20T08:24:03.727Z,6.87
2019-05-20T08:26:34.306Z,7.50
2019-05-20T08:29:04.958Z,7.57
2019-05-20T08:31:34.912Z,8.33
2019-05-20T08:34:05.116Z,7.07
2019-05-20T08:36:35.494Z,8.37
2019-05-20T08:39:07.835Z,7.70
2019-05-20T08:41:38.606Z,9.00
2019-05-20T08:44:10.604Z,8.40
2019-05-20T08:46:40.667Z,8.57
2019-05-20T08:49:11.725Z,8.63
2019-05-20T08:51:42.081Z,8.67
2019-05-20T08:54:12.072Z,8.50
2019-05-20T08:56:42.261Z,9.00
2019-05-20T08:59:12.264Z,9.63
2019-05-20T09:01:42.892Z,8.70
2019-05-20T09:04:12.846Z,10.37
2019-05-20T09:06:43.345Z,9.20
2019-05-20T09:09:17.117Z,9.27
2019-05-20T09:11:48.075Z,9.87
2019-05-20T09:14:18.188Z,9.00
2019-05-20T09:16:48.147Z,9.97
2019-05-20T09:19:18.228Z,8.63
2019-05-20T09:21:48.937Z,9.07
2019-05-20T09:24:19.298Z,8.97
2019-05-20T09:26:50.179Z,9.37
2019-05-20T09:29:20.122Z,9.47
2019-05-20T09:31:50.398Z,8.80
2019-05-20T09:34:20.582Z,9.17
2019-05-20T09:36:50.590Z,9.40
2019-05-20T09:39:20.754Z,8.47
2019-05-20T09:41:51.305Z,9.40
2019-05-20T09:44:21.652Z,9.73
2019-05-20T09:46:51.559Z,9.43
2019-05-20T09:49:21.488Z,10.87
2019-05-20T09:51:51.352Z,9.63
2019-05-20T09:54:21.474Z,10.10
2019-05-20T09:56:51.929Z,10.07
2019-05-20T09:59:21.942Z,10.93
2019-05-20T10:01:51.982Z,10.93
2019-05-20T10:04:21.978Z,11.40
2019-05-20T10:06:51.984Z,10.47
2019-05-20T10:09:21.911Z,12.33
2019-05-20T10:11:52.910Z,11.37
2019-05-20T10:14:22.875Z,10.73
2019-05-20T10:16:53.155Z,10.73
2019-05-20T10:19:23.002Z,11.23
2019-05-20T10:21:53.040Z,11.57
2019-05-20T10:24:22.996Z,11.47
2019-05-20T10:26:53.108Z,11.27
2019-05-20T10:29:23.043Z,11.90
2019-05-20T10:31:53.252Z,14.70
2019-05-20T10:34:23.126Z,12.87
2019-05-20T10:36:53.017Z,12.73
2019-05-20T10:39:22.873Z,13.20
2019-05-20T10:41:53.064Z,14.57
2019-05-20T10:44:22.932Z,13.20
2019-05-20T10:46:52.867Z,13.07
2019-05-20T10:49:22.808Z,13.57
2019-05-20T10:51:52.786Z,12.47
2019-05-20T10:54:22.654Z,14.03
2019-05-20T10:56:52.616Z,12.53
2019-05-20T10:59:22.526Z,13.33
2019-05-20T11:01:52.409Z,13.53
2019-05-20T11:04:22.348Z,13.40
2019-05-20T11:06:52.290Z,13.43
2019-05-20T11:09:22.267Z,14.03
2019-05-20T11:11:52.175Z,13.83
2019-05-20T11:14:22.404Z,14.40
2019-05-20T11:16:52.540Z,13.77
2019-05-20T11:19:22.433Z,14.77
2019-05-20T11:21:52.631Z,15.23
2019-05-20T11:24:22.520Z,14.87
2019-05-20T11:26:52.495Z,16.57
2019-05-20T11:29:22.375Z,16.57
2019-05-20T11:31:52.247Z,15.80
2019-05-20T11:34:22.125Z,20.30
2019-05-20T11:36:52.115Z,15.77
2019-05-20T11:39:32.544Z,16.97
2019-05-20T11:41:54.577Z,21.63
2019-05-20T11:44:24.653Z,16.20
2019-05-20T11:46:54.952Z,15.73
2019-05-20T11:49:28.858Z,17.30
2019-05-20T11:51:56.533Z,16.83
2019-05-20T11:54:26.414Z,16.63
2019-05-20T11:56:56.605Z,18.10
2019-05-20T11:59:26.510Z,15.80
2019-05-20T12:01:56.416Z,16.23
2019-05-20T12:04:26.292Z,17.53
2019-05-20T12:06:56.251Z,15.70
2019-05-20T12:09:26.162Z,15.90
2019-05-20T12:11:56.333Z,19.80
2019-05-20T12:14:26.210Z,17.57
2019-05-20T12:16:56.062Z,17.30
2019-05-20T12:19:25.944Z,17.63
2019-05-20T12:21:56.225Z,18.07
2019-05-20T12:24:26.350Z,17.03
2019-05-20T12:26:56.199Z,18.60
2019-05-20T12:29:26.087Z,18.60
2019-05-20T12:31:56.045Z,17.90
2019-05-20T12:34:25.933Z,18.37
2019-05-20T12:36:55.787Z,19.80
2019-05-20T12:39:25.704Z,20.47
2019-05-20T12:41:55.729Z,20.20
2019-05-20T12:44:26.170Z,18.83
2019-05-20T12:46:56.126Z,20.63
2019-05-20T12:49:26.236Z,18.23
2019-05-20T12:51:56.497Z,18.30
2019-05-20T12:54:26.376Z,16.43
2019-05-20T12:56:56.489Z,16.57
2019-05-20T12:59:26.440Z,17.73
2019-05-20T13:01:56.331Z,17.33
2019-05-20T13:04:26.274Z,18.23
2019-05-20T13:06:56.526Z,16.93
2019-05-20T13:09:26.474Z,16.23
2019-05-20T13:11:56.389Z,18.60
2019-05-20T13:14:26.265Z,17.93
2019-05-20T13:16:56.143Z,18.70
2019-05-20T13:19:26.044Z,19.03
2019-05-20T13:21:56.239Z,15.80
2019-05-20T13:24:26.175Z,17.17
2019-05-20T13:26:56.323Z,17.17
2019-05-20T13:29:26.189Z,16.17
2019-05-20T13:31:56.061Z,18.67
2019-05-20T13:34:26.039Z,16.60
2019-05-20T13:36:55.953Z,17.00
2019-05-20T13:39:25.817Z,18.40
2019-05-20T13:41:56.090Z,17.27
2019-05-20T13:44:26.428Z,17.00
2019-05-20T13:46:56.317Z,18.70
2019-05-20T13:49:26.198Z,17.27
2019-05-20T13:51:56.116Z,15.17
2019-05-20T13:54:26.143Z,16.97
2019-05-20T13:56:56.916Z,15.63
2019-05-20T13:59:26.800Z,15.47
2019-05-20T14:01:57.070Z,15.47
2019-05-20T14:04:27.028Z,15.53
2019-05-20T14:06:57.413Z,16.50
2019-05-20T14:09:27.516Z,15.50
2019-05-20T14:11:57.463Z,15.53
2019-05-20T14:14:27.329Z,16.47
2019-05-20T14:16:57.193Z,17.53
2019-05-20T14:19:27.141Z,16.40
2019-05-20T14:21:57.309Z,15.10
2019-05-20T14:24:27.284Z,16.90
2019-05-20T14:26:57.157Z,18.13
2019-05-20T14:29:27.100Z,15.43
2019-05-20T14:31:57.004Z,14.53
2019-05-20T14:34:26.877Z,16.63
2019-05-20T14:36:56.788Z,15.87
2019-05-20T14:39:26.760Z,16.17
2019-05-20T14:41:56.707Z,17.40
2019-05-20T14:44:26.572Z,15.60
2019-05-20T14:46:56.527Z,14.53
2019-05-20T14:49:26.401Z,15.00
2019-05-20T14:51:56.374Z,18.20
2019-05-20T14:54:26.224Z,16.17
2019-05-20T14:56:56.181Z,18.13
2019-05-20T14:59:26.214Z,16.67
2019-05-20T15:01:56.100Z,16.85
2019-05-20T15:04:26.098Z,15.97
2019-05-20T15:06:56.308Z,16.07
2019-05-20T15:09:26.310Z,19.43
2019-05-20T15:11:56.190Z,16.75
2019-05-20T15:14:26.300Z,18.10
2019-05-20T15:16:56.403Z,16.73
2019-05-20T15:19:26.527Z,18.93
2019-05-20T15:21:56.575Z,17.70
2019-05-20T15:24:26.433Z,18.50
2019-05-20T15:26:56.342Z,16.07
2019-05-20T15:29:28.378Z,17.27
2019-05-20T15:31:57.890Z,16.20
2019-05-20T15:34:28.247Z,16.60
2019-05-20T15:36:58.282Z,17.17
2019-05-20T15:39:28.191Z,19.43
2019-05-20T15:41:58.397Z,17.98
2019-05-20T15:44:28.319Z,19.93
2019-05-20T15:46:58.476Z,20.27
2019-05-20T15:49:29.364Z,20.23
2019-05-20T15:51:59.244Z,20.17
2019-05-20T15:54:29.131Z,19.73
2019-05-20T15:56:59.211Z,20.57
2019-05-20T15:59:44.985Z,20.63
2019-05-20T16:02:01.131Z,24.93
2019-05-20T16:04:34.833Z,20.17
2019-05-20T16:07:04.994Z,19.10
2019-05-20T16:09:34.953Z,20.07
2019-05-20T16:12:04.999Z,18.37
2019-05-20T16:14:34.911Z,19.07
2019-05-20T16:17:04.865Z,19.10
2019-05-20T16:19:34.849Z,21.27
2019-05-20T16:22:04.978Z,18.83
2019-05-20T16:24:35.293Z,20.30
2019-05-20T16:27:05.297Z,17.87
2019-05-20T16:29:35.260Z,22.37
2019-05-20T16:32:06.738Z,20.80
2019-05-20T16:34:37.028Z,19.47
2019-05-20T16:37:07.382Z,19.37
2019-05-20T16:39:37.649Z,18.93
2019-05-20T16:42:35.773Z,19.00
2019-05-20T16:45:42.904Z,19.43
2019-05-20T16:48:14.718Z,19.43
2019-05-20T16:50:45.263Z,16.77
2019-05-20T16:53:21.486Z,19.53
2019-05-20T16:55:51.684Z,18.07
2019-05-20T16:58:21.996Z,19.33
2019-05-20T17:00:51.922Z,19.60
2019-05-20T17:03:22.902Z,18.23
2019-05-20T17:05:52.748Z,15.47
2019-05-20T17:08:22.724Z,17.40
2019-05-20T17:10:52.831Z,14.83
2019-05-20T17:13:22.746Z,16.43
2019-05-20T17:15:52.806Z,15.67
2019-05-20T17:18:23.209Z,14.47
2019-05-20T17:20:53.250Z,15.50
2019-05-20T17:23:23.178Z,13.13
2019-05-20T17:25:53.194Z,15.20
2019-05-20T17:28:23.073Z,14.73
2019-05-20T17:30:53.174Z,16.90
2019-05-20T17:33:23.369Z,13.87
2019-05-20T17:35:53.486Z,14.77
2019-05-20T17:38:23.511Z,14.93
2019-05-20T17:40:53.606Z,14.00
2019-05-20T17:43:26.963Z,13.93
2019-05-20T17:45:57.107Z,16.87
2019-05-20T17:48:29.939Z,16.50
2019-05-20T17:51:02.012Z,16.57
2019-05-20T17:53:33.360Z,17.60
2019-05-20T17:56:23.772Z,19.33
2019-05-20T17:59:06.323Z,20.03
2019-05-20T18:01:40.145Z,18.63
2019-05-20T18:04:10.331Z,18.23
2019-05-20T18:06:40.413Z,20.03
2019-05-20T18:09:17.487Z,21.97
2019-05-20T18:11:50.594Z,22.33
2019-05-20T18:14:20.495Z,20.60
2019-05-20T18:16:50.435Z,20.47
2019-05-20T18:19:20.379Z,20.40
2019-05-20T18:21:50.338Z,24.30
2019-05-20T18:24:20.407Z,22.60
2019-05-20T18:26:50.372Z,22.03
2019-05-20T18:29:20.414Z,24.10
2019-05-20T18:31:50.645Z,23.00
2019-05-20T18:34:20.825Z,28.60
2019-05-20T18:36:50.861Z,24.97
2019-05-20T18:39:21.070Z,29.53
2019-05-20T18:41:51.194Z,32.10
2019-05-20T18:44:35.184Z,26.97
2019-05-20T18:46:56.845Z,29.33
2019-05-20T18:49:26.709Z,27.03
2019-05-20T18:51:56.803Z,31.70
2019-05-20T18:54:26.758Z,29.83
2019-05-20T18:56:56.743Z,30.97
2019-05-20T18:59:26.652Z,34.37
2019-05-20T19:02:04.994Z,28.97
2019-05-20T19:04:28.393Z,31.15
2019-05-20T19:06:58.399Z,30.77
2019-05-20T19:09:28.774Z,31.63
2019-05-20T19:11:58.652Z,33.20
2019-05-20T19:14:29.236Z,32.73
2019-05-20T19:16:59.518Z,36.50
2019-05-20T19:19:31.780Z,34.47
2019-05-20T19:22:03.135Z,40.77
2019-05-20T19:24:33.082Z,40.30
2019-05-20T19:27:03.512Z,30.83
2019-05-20T19:29:33.523Z,36.73
2019-05-20T23:09:07.381Z,0.20
2019-05-20T23:11:37.445Z,0.30
2019-05-20T23:14:07.533Z,0.20
2019-05-20T23:16:37.654Z,0.30
2019-05-20T23:19:07.754Z,0.20
2019-05-20T23:21:37.907Z,0.20
2019-05-20T23:24:08.093Z,0.10
2019-05-20T23:26:38.237Z,0.20
2019-05-20T23:29:08.226Z,0.10
2019-05-20T23:31:38.159Z,0.00
2019-05-20T23:34:12.660Z,0.10
2019-05-20T23:36:40.383Z,0.30
2019-05-20T23:39:10.772Z,0.20
2019-05-20T23:41:41.013Z,0.20
2019-05-20T23:44:12.756Z,0.30
2019-05-20T23:46:43.066Z,0.20
2019-05-20T23:49:13.275Z,0.20
2019-05-20T23:51:43.900Z,0.10
2019-05-20T23:54:14.323Z,0.10
2019-05-20T23:56:44.763Z,0.20
2019-05-20T23:59:15.054Z,0.20
